createdAt,value
2022-08-20T00:01:02.270Z,26.88
2022-08-20T00:04:07.802Z,29.17
2022-08-20T00:07:17.224Z,27.77
2022-08-20T00:10:23.191Z,31.23
2022-08-20T00:13:29.756Z,34.00
2022-08-20T00:16:36.878Z,29.13
2022-08-20T00:19:42.360Z,28.17
2022-08-20T00:22:50.457Z,29.05
2022-08-20T00:25:55.932Z,32.67
2022-08-20T00:29:01.061Z,30.17
2022-08-20T00:32:06.413Z,27.55
2022-08-20T00:35:13.094Z,30.23
2022-08-20T00:38:21.276Z,26.75
2022-08-20T00:41:27.731Z,39.05
2022-08-20T00:44:33.688Z,31.88
2022-08-20T00:47:40.828Z,29.83
2022-08-20T00:50:56.955Z,27.17
2022-08-20T00:54:06.211Z,30.77
2022-08-20T00:57:12.961Z,46.03
2022-08-20T01:00:20.631Z,35.97
2022-08-20T01:03:25.860Z,34.08
2022-08-20T01:06:31.003Z,36.78
2022-08-20T01:09:58.194Z,41.70
2022-08-20T01:13:08.706Z,39.40
2022-08-20T01:16:17.597Z,31.40
2022-08-20T01:19:30.126Z,38.60
2022-08-20T01:22:51.120Z,36.95
2022-08-20T01:26:00.585Z,41.92
2022-08-20T01:29:08.020Z,34.05
2022-08-20T01:32:13.140Z,35.67
2022-08-20T01:35:22.883Z,36.85
2022-08-20T01:38:28.029Z,38.38
2022-08-20T01:41:43.973Z,35.53
2022-08-20T01:44:50.337Z,33.75
2022-08-20T01:47:55.699Z,32.00
2022-08-20T01:51:05.138Z,31.75
2022-08-20T01:54:10.878Z,40.60
2022-08-20T01:57:19.565Z,36.33
2022-08-20T02:00:25.538Z,31.73
2022-08-20T02:03:34.807Z,27.67
2022-08-20T02:06:56.797Z,28.42
2022-08-20T02:10:03.032Z,24.80
2022-08-20T02:13:11.180Z,26.20
2022-08-20T02:16:38.410Z,30.40
2022-08-20T02:19:44.507Z,32.30
2022-08-20T02:22:51.743Z,31.63
2022-08-20T02:25:57.071Z,28.42
2022-08-20T02:29:05.533Z,28.00
2022-08-20T02:32:24.927Z,30.42
2022-08-20T02:35:36.163Z,26.70
2022-08-20T02:38:41.467Z,23.10
2022-08-20T02:41:47.107Z,26.20
2022-08-20T02:44:55.159Z,28.35
2022-08-20T02:48:00.286Z,30.52
2022-08-20T02:51:07.359Z,31.50
2022-08-20T02:54:12.844Z,25.60
2022-08-20T02:57:20.584Z,22.70
2022-08-20T03:00:28.252Z,23.63
2022-08-20T03:03:33.356Z,25.55
2022-08-20T03:06:38.658Z,22.88
2022-08-20T03:09:44.622Z,24.38
2022-08-20T03:12:49.651Z,25.73
2022-08-20T03:15:59.316Z,27.85
2022-08-20T03:19:04.355Z,26.90
2022-08-20T03:22:09.624Z,24.50
2022-08-20T03:25:14.875Z,32.97
2022-08-20T03:28:20.317Z,47.50
2022-08-20T03:31:27.931Z,53.83
2022-08-20T03:34:33.368Z,48.15
2022-08-20T03:37:39.473Z,54.15
2022-08-20T03:40:48.669Z,58.33
2022-08-20T03:43:54.933Z,62.45
2022-08-20T03:47:02.777Z,62.80
2022-08-20T03:50:09.227Z,62.15
2022-08-20T03:53:19.934Z,63.70
2022-08-20T03:56:25.045Z,63.40
2022-08-20T03:59:33.202Z,60.20
2022-08-20T04:02:41.111Z,54.28
2022-08-20T04:05:47.389Z,51.28
2022-08-20T04:08:54.031Z,55.45
2022-08-20T04:12:00.459Z,48.03
2022-08-20T04:15:05.677Z,42.50
2022-08-20T04:18:20.547Z,44.80
2022-08-20T04:21:25.578Z,35.55
2022-08-20T04:24:34.900Z,34.00
2022-08-20T04:27:40.703Z,38.00
2022-08-20T04:30:51.681Z,33.65
2022-08-20T04:33:59.859Z,30.23
2022-08-20T04:37:05.442Z,29.35
2022-08-20T04:40:24.207Z,32.10
2022-08-20T04:43:30.254Z,25.15
2022-08-20T04:46:35.519Z,32.22
2022-08-20T04:49:43.433Z,29.58
2022-08-20T04:52:48.722Z,26.17
2022-08-20T04:55:54.670Z,22.13
2022-08-20T04:59:00.747Z,24.65
2022-08-20T05:02:05.868Z,21.48
2022-08-20T05:05:14.590Z,23.95
2022-08-20T05:08:20.683Z,25.58
2022-08-20T05:11:35.842Z,14.07
2022-08-20T05:14:41.968Z,17.17
2022-08-20T05:17:47.619Z,25.13
2022-08-20T05:20:56.257Z,26.10
2022-08-20T05:24:03.154Z,19.98
2022-08-20T05:27:08.682Z,19.80
2022-08-20T05:30:34.314Z,22.83
2022-08-20T05:33:41.143Z,28.60
2022-08-20T05:36:51.535Z,61.17
2022-08-20T05:39:59.336Z,47.17
2022-08-20T05:43:05.039Z,48.30
2022-08-20T05:46:10.244Z,39.63
2022-08-20T05:49:16.619Z,27.05
2022-08-20T05:52:24.379Z,24.95
2022-08-20T05:55:29.676Z,21.77
2022-08-20T05:58:35.304Z,21.35
2022-08-20T06:01:41.655Z,16.92
2022-08-20T06:04:44.226Z,21.60
2022-08-20T06:07:54.727Z,28.85
2022-08-20T06:11:02.955Z,21.77
2022-08-20T06:14:08.460Z,20.85
2022-08-20T06:17:15.269Z,21.95
2022-08-20T06:20:20.602Z,17.60
2022-08-20T06:23:57.458Z,19.92
2022-08-20T06:26:58.186Z,15.77
2022-08-20T06:30:03.373Z,20.77
2022-08-20T06:33:10.045Z,20.67
2022-08-20T06:36:18.688Z,23.33
2022-08-20T06:39:27.195Z,19.67
2022-08-20T06:42:32.193Z,14.85
2022-08-20T06:45:38.197Z,14.45
2022-08-20T06:48:43.213Z,13.60
2022-08-20T06:51:51.874Z,15.65
2022-08-20T06:55:00.148Z,15.05
2022-08-20T06:58:05.820Z,13.57
2022-08-20T07:01:11.649Z,22.75
2022-08-20T07:04:16.911Z,14.85
2022-08-20T07:07:22.471Z,20.92
2022-08-20T07:10:31.058Z,25.38
2022-08-20T07:13:37.088Z,23.35
2022-08-20T07:16:42.258Z,27.30
2022-08-20T07:19:47.314Z,15.45
2022-08-20T07:22:52.781Z,14.88
2022-08-20T07:26:00.859Z,14.25
2022-08-20T07:29:05.993Z,15.60
2022-08-20T07:32:23.399Z,14.82
2022-08-20T07:35:34.271Z,11.63
2022-08-20T07:38:40.000Z,15.02
2022-08-20T07:42:03.200Z,26.35
2022-08-20T07:45:11.068Z,19.27
2022-08-20T07:48:29.730Z,13.05
2022-08-20T07:51:36.889Z,18.27
2022-08-20T07:54:42.870Z,18.45
2022-08-20T07:57:51.079Z,11.45
2022-08-20T08:04:01.193Z,20.00
2022-08-20T08:07:06.341Z,11.27
2022-08-20T08:10:12.975Z,10.93
2022-08-20T08:13:20.971Z,11.38
2022-08-20T08:16:26.124Z,14.05
2022-08-20T08:19:38.981Z,18.10
2022-08-20T08:22:44.527Z,10.27
2022-08-20T08:25:51.777Z,16.73
2022-08-20T08:28:59.642Z,14.30
2022-08-20T08:32:05.051Z,12.95
2022-08-20T08:35:10.857Z,13.82
2022-08-20T08:38:17.066Z,8.43
2022-08-20T08:41:23.378Z,7.25
2022-08-20T08:44:34.145Z,12.32
2022-08-20T08:47:41.441Z,18.42
2022-08-20T08:50:54.272Z,15.87
2022-08-20T08:54:04.604Z,9.40
2022-08-20T08:57:13.029Z,9.05
2022-08-20T09:00:22.694Z,9.32
2022-08-20T09:03:29.529Z,9.35
2022-08-20T09:06:35.601Z,9.13
2022-08-20T09:09:41.842Z,12.75
2022-08-20T09:12:47.860Z,11.43
2022-08-20T09:15:55.719Z,16.80
2022-08-20T09:19:00.837Z,12.40
2022-08-20T09:22:10.008Z,15.75
2022-08-20T09:25:15.371Z,13.07
2022-08-20T09:28:20.358Z,23.38
2022-08-20T09:31:29.216Z,12.35
2022-08-20T09:34:37.652Z,19.75
2022-08-20T09:37:43.364Z,20.85
2022-08-20T09:40:49.061Z,13.38
2022-08-20T09:43:54.902Z,15.82
2022-08-20T09:47:02.523Z,15.50
2022-08-20T09:50:08.739Z,12.55
2022-08-20T09:53:13.947Z,22.15
2022-08-20T09:56:19.885Z,21.40
2022-08-20T09:59:25.212Z,20.13
2022-08-20T10:02:33.187Z,19.85
2022-08-20T10:05:38.370Z,21.58
2022-08-20T10:08:43.602Z,24.52
2022-08-20T10:11:48.709Z,22.98
2022-08-20T10:14:56.010Z,18.95
2022-08-20T10:18:08.967Z,18.00
2022-08-20T10:21:17.562Z,23.02
2022-08-20T10:24:23.316Z,21.10
2022-08-20T10:27:28.474Z,16.83
2022-08-20T10:30:33.714Z,27.27
2022-08-20T10:33:41.990Z,25.90
2022-08-20T10:36:47.756Z,23.23
2022-08-20T10:39:53.281Z,20.00
2022-08-20T10:42:58.452Z,18.02
2022-08-20T10:46:03.643Z,20.55
2022-08-20T10:49:11.705Z,19.85
2022-08-20T10:52:16.913Z,20.05
2022-08-20T10:55:22.412Z,22.77
2022-08-20T10:58:37.700Z,17.20
2022-08-20T11:01:45.362Z,19.13
2022-08-20T11:04:53.519Z,15.73
2022-08-20T11:08:00.031Z,24.67
2022-08-20T11:11:05.530Z,21.15
2022-08-20T11:14:10.517Z,22.60
2022-08-20T11:17:16.078Z,22.63
2022-08-20T11:20:25.508Z,21.08
2022-08-20T11:23:30.717Z,22.52
2022-08-20T11:26:36.062Z,24.35
2022-08-20T11:29:41.540Z,22.02
2022-08-20T11:32:49.024Z,20.83
2022-08-20T11:35:56.685Z,25.77
2022-08-20T11:39:01.960Z,24.55
2022-08-20T11:42:07.253Z,14.57
2022-08-20T11:45:13.010Z,15.02
2022-08-20T11:48:19.138Z,15.65
2022-08-20T11:51:26.711Z,12.68
2022-08-20T11:54:33.044Z,14.60
2022-08-20T11:57:39.294Z,16.38
2022-08-20T12:00:44.665Z,20.55
2022-08-20T12:03:49.775Z,12.88
2022-08-20T12:06:57.551Z,15.32
2022-08-20T12:10:07.089Z,15.27
2022-08-20T12:13:12.445Z,16.67
2022-08-20T12:16:17.432Z,15.07
2022-08-20T12:19:22.578Z,20.42
2022-08-20T12:22:30.221Z,12.27
2022-08-20T12:25:35.822Z,13.85
2022-08-20T12:28:41.008Z,13.45
2022-08-20T12:31:46.380Z,12.00
2022-08-20T12:34:51.943Z,15.48
2022-08-20T12:37:59.817Z,13.40
2022-08-20T12:41:05.052Z,14.52
2022-08-20T12:44:10.645Z,16.17
2022-08-20T12:47:19.280Z,10.95
2022-08-20T12:50:30.893Z,13.05
2022-08-20T12:53:39.279Z,69.35
2022-08-20T12:56:44.474Z,20.75
2022-08-20T12:59:49.462Z,37.03
2022-08-20T13:02:55.735Z,13.50
2022-08-20T13:06:03.795Z,9.93
2022-08-20T13:09:11.758Z,20.92
2022-08-20T13:12:17.339Z,8.63
2022-08-20T13:15:23.005Z,15.10
2022-08-20T13:18:27.966Z,13.18
2022-08-20T13:21:33.105Z,14.90
2022-08-20T13:24:41.071Z,12.25
2022-08-20T13:27:46.696Z,10.80
2022-08-20T13:30:51.913Z,14.25
2022-08-20T13:33:57.293Z,17.38
2022-08-20T13:37:02.234Z,17.25
2022-08-20T13:40:11.267Z,12.75
2022-08-20T13:43:16.334Z,12.80
2022-08-20T13:46:21.593Z,29.98
2022-08-20T13:49:27.148Z,40.80
2022-08-20T13:52:38.999Z,15.32
2022-08-20T13:55:47.106Z,19.45
2022-08-20T13:58:53.084Z,23.10
2022-08-20T14:01:58.498Z,26.75
2022-08-20T14:05:03.448Z,17.60
2022-08-20T14:08:09.738Z,16.83
2022-08-20T14:11:18.266Z,16.98
2022-08-20T14:14:23.452Z,17.92
2022-08-20T14:17:29.539Z,22.63
2022-08-20T14:20:35.633Z,21.98
2022-08-20T14:23:44.285Z,15.30
2022-08-20T14:26:51.846Z,16.27
2022-08-20T14:29:56.932Z,25.10
2022-08-20T14:33:02.158Z,17.95
2022-08-20T14:36:07.594Z,20.33
2022-08-20T14:39:13.901Z,23.63
2022-08-20T14:42:24.569Z,18.42
2022-08-20T14:45:29.671Z,21.08
2022-08-20T14:48:34.812Z,26.67
2022-08-20T14:51:40.143Z,15.43
2022-08-20T14:54:45.758Z,21.95
2022-08-20T14:57:54.814Z,18.63
2022-08-20T15:01:00.037Z,18.15
2022-08-20T15:04:05.195Z,12.10
2022-08-20T15:07:13.099Z,13.27
2022-08-20T15:10:21.165Z,11.65
2022-08-20T15:13:28.850Z,15.27
2022-08-20T15:16:33.958Z,15.13
2022-08-20T15:19:39.243Z,12.25
2022-08-20T15:22:44.927Z,17.88
2022-08-20T15:25:50.141Z,14.85
2022-08-20T15:28:57.852Z,13.10
2022-08-20T15:32:03.198Z,7.60
2022-08-20T15:35:10.917Z,14.02
2022-08-20T15:38:15.883Z,25.65
2022-08-20T15:41:21.001Z,29.45
2022-08-20T15:44:28.942Z,11.95
2022-08-20T15:47:37.030Z,11.80
2022-08-20T15:53:51.963Z,18.73
2022-08-20T15:57:02.075Z,13.82
2022-08-20T16:00:13.939Z,18.45
2022-08-20T16:03:28.599Z,11.50
2022-08-20T16:06:35.085Z,24.42
2022-08-20T16:09:51.044Z,16.40
2022-08-20T16:12:59.459Z,36.80
2022-08-20T16:16:09.884Z,8.82
2022-08-20T16:19:15.675Z,19.50
2022-08-20T16:22:21.501Z,16.77
2022-08-20T16:25:29.142Z,15.73
2022-08-20T16:28:39.316Z,24.92
2022-08-20T16:31:48.317Z,15.48
2022-08-20T16:34:58.640Z,11.57
2022-08-20T16:38:09.992Z,14.45
2022-08-20T16:41:16.825Z,26.40
2022-08-20T16:44:28.796Z,7.75
2022-08-20T16:47:38.436Z,13.25
2022-08-20T16:50:44.483Z,11.55
2022-08-20T16:53:49.633Z,26.45
2022-08-20T16:57:01.089Z,12.73
2022-08-20T17:00:11.325Z,14.45
2022-08-20T17:03:31.624Z,10.40
2022-08-20T17:06:47.536Z,10.73
2022-08-20T17:09:53.267Z,16.40
2022-08-20T17:12:59.998Z,13.60
2022-08-20T17:16:07.040Z,11.73
2022-08-20T17:19:31.427Z,8.80
2022-08-20T17:22:44.039Z,14.68
2022-08-20T17:25:57.292Z,11.45
2022-08-20T17:29:03.986Z,10.55
2022-08-20T17:32:13.325Z,12.57
2022-08-20T17:35:29.282Z,18.13
2022-08-20T17:38:37.193Z,13.60
2022-08-20T17:41:49.385Z,10.88
2022-08-20T17:44:55.762Z,10.82
2022-08-20T17:48:01.908Z,14.25
2022-08-20T17:51:13.935Z,7.60
2022-08-20T17:54:24.560Z,13.02
2022-08-20T17:57:33.401Z,12.60
2022-08-20T18:00:38.732Z,10.85
2022-08-20T18:03:43.865Z,22.27
2022-08-20T18:06:55.314Z,11.65
2022-08-20T18:10:01.147Z,12.95
2022-08-20T18:13:10.820Z,16.83
2022-08-20T18:16:19.446Z,10.80
2022-08-20T18:19:32.584Z,17.67
2022-08-20T18:22:46.687Z,15.25
2022-08-20T18:25:54.750Z,10.88
2022-08-20T18:29:01.410Z,14.85
2022-08-20T18:32:07.994Z,10.23
2022-08-20T18:35:14.976Z,17.02
2022-08-20T18:38:34.605Z,11.55
2022-08-20T18:41:41.324Z,9.32
2022-08-20T18:44:48.013Z,11.13
2022-08-20T18:47:53.182Z,18.02
2022-08-20T18:50:59.745Z,13.68
2022-08-20T18:54:07.874Z,14.18
2022-08-20T18:57:21.637Z,12.32
2022-08-20T19:00:30.565Z,10.60
2022-08-20T19:03:40.858Z,9.70
2022-08-20T19:06:48.429Z,8.30
2022-08-20T19:10:09.555Z,13.57
2022-08-20T19:13:43.871Z,11.00
2022-08-20T19:16:52.232Z,13.43
2022-08-20T19:20:04.239Z,10.82
2022-08-20T19:23:10.995Z,15.60
2022-08-20T19:26:25.132Z,15.07
2022-08-20T19:29:32.653Z,16.30
2022-08-20T19:32:41.171Z,14.10
2022-08-20T19:35:50.806Z,12.25
2022-08-20T19:38:57.330Z,15.68
2022-08-20T19:42:06.558Z,16.85
2022-08-20T19:45:18.096Z,15.55
2022-08-20T19:48:29.435Z,17.42
2022-08-20T19:51:44.161Z,17.30
2022-08-20T19:54:54.892Z,14.05
2022-08-20T19:58:03.925Z,13.27
2022-08-20T20:01:13.228Z,12.60
2022-08-20T20:04:20.435Z,14.50
2022-08-20T20:07:27.124Z,16.02
2022-08-20T20:10:34.042Z,15.60
2022-08-20T20:13:42.063Z,10.90
2022-08-20T20:16:49.097Z,12.57
2022-08-20T20:19:57.211Z,15.85
2022-08-20T20:23:06.699Z,19.65
2022-08-20T20:26:17.874Z,19.23
2022-08-20T20:29:29.113Z,14.65
2022-08-20T20:32:34.519Z,15.65
2022-08-20T20:35:39.709Z,13.20
2022-08-20T20:38:55.581Z,22.33
2022-08-20T20:42:01.679Z,42.97
2022-08-20T20:45:21.581Z,21.40
2022-08-20T20:48:33.724Z,19.73
2022-08-20T20:51:40.355Z,18.55
2022-08-20T20:54:47.142Z,15.13
2022-08-20T20:57:52.553Z,17.77
2022-08-20T21:01:00.621Z,19.25
2022-08-20T21:04:05.984Z,28.98
2022-08-20T21:07:12.338Z,19.42
2022-08-20T21:10:17.634Z,23.42
2022-08-20T21:13:22.916Z,26.40
2022-08-20T21:16:30.816Z,28.80
2022-08-20T21:19:45.311Z,26.98
2022-08-20T21:22:51.169Z,25.00
2022-08-20T21:25:56.376Z,30.67
2022-08-20T21:29:02.371Z,28.15
2022-08-20T21:32:12.347Z,28.83
2022-08-20T21:35:19.015Z,28.95
2022-08-20T21:38:24.353Z,39.97
2022-08-20T21:41:30.339Z,24.85
2022-08-20T21:44:36.522Z,29.60
2022-08-20T21:47:45.336Z,29.95
2022-08-20T21:50:54.138Z,28.65
2022-08-20T21:53:59.259Z,118.20
2022-08-20T21:57:05.994Z,40.53
2022-08-20T22:00:17.199Z,30.27
2022-08-20T22:03:25.854Z,36.85
2022-08-20T22:06:31.588Z,31.73
2022-08-20T22:09:38.522Z,37.50
2022-08-20T22:12:43.746Z,28.17
2022-08-20T22:15:48.886Z,32.10
2022-08-20T22:18:56.791Z,32.47
2022-08-20T22:22:01.912Z,33.13
2022-08-20T22:25:07.382Z,40.67
2022-08-20T22:28:15.844Z,32.40
2022-08-20T22:31:21.804Z,43.40
2022-08-20T22:34:31.784Z,43.63
2022-08-20T22:37:37.011Z,34.65
2022-08-20T22:40:42.268Z,34.20
2022-08-20T22:43:56.595Z,35.28
2022-08-20T22:47:05.150Z,37.25
2022-08-20T22:50:13.808Z,37.67
2022-08-20T22:53:19.280Z,36.53
2022-08-20T22:56:24.920Z,39.72
2022-08-20T22:59:30.742Z,41.28
2022-08-20T23:02:36.329Z,41.67
2022-08-20T23:05:44.898Z,44.10
2022-08-20T23:11:55.132Z,44.30
2022-08-20T23:15:00.300Z,42.58
2022-08-20T23:18:08.130Z,44.35
2022-08-20T23:21:16.704Z,47.33
2022-08-20T23:24:22.707Z,51.53
2022-08-20T23:27:28.275Z,42.78
2022-08-20T23:30:33.439Z,50.70
2022-08-20T23:33:41.794Z,52.33
2022-08-20T23:36:52.813Z,49.70
2022-08-20T23:39:58.399Z,49.03
2022-08-20T23:43:03.972Z,54.60
2022-08-20T23:46:09.853Z,53.58
2022-08-20T23:49:15.382Z,56.80
2022-08-20T23:52:23.168Z,57.67
2022-08-20T23:55:28.529Z,57.65
2022-08-20T23:58:33.649Z,60.28
